Home   Weather   France   Châteauroux   Past weeks
Flag for France

Past Weather in Châteauroux, Indre, France — Yesterday and Last 2 Weeks

Currently: 43 °F. Clear. (Weather station: Chateauroux Airport, France). See more current weather

Past Weather in Châteauroux — Graph

°F

Châteauroux Temperature Yesterday

Maximum temperature yesterday: 52 °F (at 1:30 pm)
Minimum temperature yesterday: 34 °F (at 3:00 am)
Average temperature yesterday: 42 °F

High & Low Weather Summary for the Past Weeks

 TemperatureHumidityPressure
High61 °F (Nov 12, 2:00 pm)100% (Nov 12, 4:00 am)30.45 "Hg (Nov 12, 4:00 am)
Low34 °F (Nov 20, 12:30 am)63% (Nov 23, 2:30 pm)29.33 "Hg (Nov 16, 10:00 pm)
Average48 °F91%29.88 "Hg
* Reported Nov 12 4:00 am — Nov 27 4:30 am, Châteauroux. Weather by CustomWeather, © 2022

Note: Actual official high and low records may vary slightly from our data, if they occured in-between our weather recording intervals... More about our weather records

Châteauroux Weather History for the Previous 24 Hours

Scroll right to see more
 ConditionsComfort  
Time TempWeatherWind HumidityBarometerVisibility
4:30 am
Sun, Nov 27
41 °FClear.3 mph100%30.21 "Hg10 mi
4:00 am43 °FClear.5 mph93%30.21 "Hg10 mi
3:30 am43 °FClear.5 mph93%30.21 "Hg10 mi
3:00 am43 °FClear.5 mph93%30.24 "Hg10 mi
2:30 am43 °FClear.6 mph93%30.24 "Hg10 mi
2:00 am43 °FClear.6 mph93%30.24 "Hg5 mi
12:30 am43 °FClear.6 mph93%30.27 "Hg10 mi
12:00 am43 °FClear.5 mph100%30.27 "Hg6 mi
11:00 pm
Sat, Nov 26
43 °FClear.10 mph100%30.30 "Hg10 mi
10:30 pm43 °FClear.7 mph100%30.30 "Hg10 mi
10:00 pm43 °FClear.5 mph100%30.33 "Hg10 mi
9:30 pm43 °FClear.7 mph100%30.33 "Hg6 mi
9:00 pm43 °FClear.9 mph100%30.30 "Hg10 mi
8:30 pm43 °FClear.7 mph100%30.33 "Hg10 mi
8:00 pm43 °FClear.7 mph100%30.33 "Hg10 mi
7:30 pm43 °FClear.8 mph100%30.33 "Hg10 mi
7:00 pm43 °FPassing clouds.7 mph100%30.33 "HgN/A
6:30 pm43 °FClear.5 mph93%30.36 "Hg10 mi
6:00 pm46 °FClear.3 mph93%30.36 "Hg10 mi
5:30 pm46 °FClear.6 mph93%30.36 "Hg10 mi
5:00 pm48 °FSunny.8 mph94%30.36 "Hg10 mi
4:30 pm50 °FPassing clouds.6 mph88%30.36 "HgN/A
4:00 pm50 °FSunny.7 mph94%30.36 "Hg10 mi
3:30 pm50 °FSunny.7 mph88%30.36 "Hg10 mi
3:00 pm50 °FLight fog.7 mph94%30.39 "HgN/A
2:00 pm52 °FSunny.3 mph82%30.42 "Hg10 mi
1:30 pm52 °FSunny.3 mph82%30.42 "Hg10 mi
1:00 pm50 °FSunny.3 mph88%30.42 "Hg10 mi
12:30 pm48 °FSunny.5 mph94%30.42 "Hg10 mi
12:00 pm48 °FSunny.5 mph87%30.42 "Hg10 mi
11:30 am46 °FSunny.3 mph93%30.42 "Hg10 mi
11:00 am46 °FPassing clouds.5 mph100%30.42 "HgN/A
10:30 am43 °FSunny.2 mph100%30.45 "Hg10 mi
10:00 am41 °FSunny.3 mph100%30.42 "Hg10 mi
9:30 am41 °FSunny.3 mph100%30.45 "Hg10 mi
9:00 am39 °FSunny.5 mph100%30.45 "Hg10 mi
8:30 am37 °FClear.3 mph100%30.45 "Hg5 mi
8:00 am37 °FClear.2 mph100%30.45 "Hg4 mi
7:30 am37 °FClear.2 mph100%30.45 "Hg5 mi
7:00 am36 °FClear.5 mph100%30.42 "Hg6 mi
6:30 am36 °FMostly cloudy.1 mph100%30.42 "Hg4 mi
6:00 am36 °FFog.No wind100%30.42 "Hg1 mi
5:30 am36 °FFog.2 mph100%30.39 "Hg1 mi
5:00 am34 °FDense fog.3 mph100%30.39 "Hg1 mi
Weather by CustomWeather, © 2022

See weather overview